Terminal Aerodrome Forecast
Issued by NWS

Home | Current Version | Previous Version | Text Only | Print | Product List | Glossary On
Versions: 1 2 3 4 5 6 7 8 9 10 11 12 13 14 15 16 17 18 19 20
927
FTUS44 KCRP 221131
TAFALI
TAF
KALI 221131Z 2212/2312 30016G25KT P6SM SKC WS015/28057KT
     FM221500 30029G40KT P6SM SKC
     FM222200 32018KT P6SM SKC
     FM230000 31008KT P6SM SKC=

USA.gov is the U.S. government's official web portal to all federal, state and local government web resources and services.